createdAt,value
2018-07-27T00:00:28.342Z,22.20
2018-07-27T00:03:00.738Z,22.10
2018-07-27T00:05:33.130Z,22.10
2018-07-27T00:08:05.565Z,22.10
2018-07-27T00:10:38.002Z,22.00
2018-07-27T00:13:10.778Z,22.00
2018-07-27T00:15:43.149Z,21.90
2018-07-27T00:18:15.551Z,21.90
2018-07-27T00:20:47.969Z,21.90
2018-07-27T00:23:20.399Z,21.90
2018-07-27T00:25:52.839Z,21.80
2018-07-27T00:28:25.422Z,21.90
2018-07-27T00:30:57.870Z,21.80
2018-07-27T00:33:30.264Z,21.70
2018-07-27T00:36:02.736Z,21.70
2018-07-27T00:41:07.615Z,21.60
2018-07-27T00:43:40.061Z,21.70
2018-07-27T00:46:12.454Z,21.60
2018-07-27T00:48:44.867Z,21.60
2018-07-27T00:53:50.219Z,21.60
2018-07-27T00:56:22.648Z,21.60
2018-07-27T00:58:55.135Z,21.60
2018-07-27T01:01:27.538Z,21.50
2018-07-27T01:03:59.969Z,21.60
2018-07-27T01:06:32.375Z,21.50
2018-07-27T01:09:07.016Z,21.50
2018-07-27T01:11:39.720Z,21.50
2018-07-27T01:14:12.115Z,21.50
2018-07-27T01:16:44.510Z,21.50
2018-07-27T01:19:16.925Z,21.50
2018-07-27T01:21:49.416Z,21.50
2018-07-27T01:24:21.771Z,21.50
2018-07-27T01:26:54.195Z,21.60
2018-07-27T01:29:26.602Z,21.40
2018-07-27T01:31:58.975Z,21.40
2018-07-27T01:34:31.383Z,21.40
2018-07-27T01:37:03.891Z,21.40
2018-07-27T01:42:08.843Z,21.30
2018-07-27T01:47:13.838Z,21.40
2018-07-27T01:49:46.272Z,21.40
2018-07-27T01:57:24.047Z,21.20
2018-07-27T02:02:30.279Z,21.20
2018-07-27T02:05:02.655Z,21.10
2018-07-27T02:07:35.128Z,21.20
2018-07-27T02:10:07.596Z,21.20
2018-07-27T02:12:39.995Z,21.10
2018-07-27T02:15:12.417Z,21.20
2018-07-27T02:17:44.794Z,21.30
2018-07-27T02:20:17.222Z,21.20
2018-07-27T02:22:49.726Z,21.10
2018-07-27T02:25:22.160Z,21.20
2018-07-27T02:27:54.579Z,21.20
2018-07-27T02:30:27.095Z,21.20
2018-07-27T02:32:59.506Z,21.10
2018-07-27T02:35:31.895Z,21.10
2018-07-27T02:38:04.753Z,21.10
2018-07-27T02:40:37.173Z,21.10
2018-07-27T02:43:10.023Z,21.00
2018-07-27T02:45:42.472Z,21.10
2018-07-27T02:48:15.040Z,21.00
2018-07-27T02:50:47.454Z,21.00
2018-07-27T02:53:19.875Z,21.00
2018-07-27T02:55:52.257Z,20.90
2018-07-27T02:58:24.664Z,20.80
2018-07-27T03:00:57.882Z,20.90
2018-07-27T03:03:30.548Z,20.80
2018-07-27T03:06:02.983Z,20.80
2018-07-27T03:08:35.638Z,20.70
2018-07-27T03:11:08.021Z,20.70
2018-07-27T03:13:40.442Z,20.70
2018-07-27T03:16:12.860Z,20.70
2018-07-27T03:18:45.258Z,20.70
2018-07-27T03:21:17.715Z,20.70
2018-07-27T03:23:50.114Z,20.70
2018-07-27T03:26:22.588Z,20.60
2018-07-27T03:28:55.089Z,20.60
2018-07-27T03:31:27.484Z,20.60
2018-07-27T03:33:59.889Z,20.60
2018-07-27T03:36:32.280Z,20.60
2018-07-27T03:39:07.444Z,20.60
2018-07-27T03:41:39.824Z,20.60
2018-07-27T03:44:12.405Z,20.70
2018-07-27T03:46:44.783Z,20.70
2018-07-27T03:49:17.201Z,20.60
2018-07-27T03:51:49.568Z,20.70
2018-07-27T03:54:22.207Z,20.60
2018-07-27T03:56:54.629Z,20.60
2018-07-27T03:59:27.054Z,20.60
2018-07-27T04:01:59.478Z,20.60
2018-07-27T04:04:31.986Z,20.70
2018-07-27T04:07:04.685Z,20.80
2018-07-27T04:09:37.095Z,20.60
2018-07-27T04:12:09.483Z,20.70
2018-07-27T04:14:42.019Z,20.60
2018-07-27T04:17:14.378Z,20.70
2018-07-27T04:19:46.817Z,20.70
2018-07-27T04:22:19.981Z,20.70
2018-07-27T04:24:58.333Z,20.70
2018-07-27T04:27:30.703Z,20.60
2018-07-27T04:30:03.662Z,20.70
2018-07-27T04:32:36.044Z,20.70
2018-07-27T04:35:08.469Z,20.70
2018-07-27T04:37:40.886Z,20.70
2018-07-27T04:40:13.477Z,20.80
2018-07-27T04:45:18.411Z,20.90
2018-07-27T04:47:50.834Z,20.90
2018-07-27T04:50:23.592Z,21.00
2018-07-27T04:52:55.974Z,21.10
2018-07-27T04:55:28.602Z,21.20
2018-07-27T04:58:01.087Z,21.30
2018-07-27T05:00:33.525Z,21.30
2018-07-27T05:03:05.955Z,21.40
2018-07-27T05:08:12.030Z,21.40
2018-07-27T05:10:46.613Z,21.40
2018-07-27T05:13:19.696Z,21.50
2018-07-27T05:15:52.250Z,21.60
2018-07-27T05:18:25.042Z,21.70
2018-07-27T05:20:57.772Z,21.80
2018-07-27T05:23:30.235Z,21.80
2018-07-27T05:26:02.715Z,21.80
2018-07-27T05:28:35.181Z,21.90
2018-07-27T05:31:07.578Z,22.00
2018-07-27T05:33:40.218Z,22.10
2018-07-27T05:36:12.799Z,22.20
2018-07-27T05:41:18.145Z,22.30
2018-07-27T05:43:50.654Z,22.40
2018-07-27T05:46:23.361Z,22.50
2018-07-27T05:48:55.966Z,22.60
2018-07-27T05:51:28.534Z,22.60
2018-07-27T05:54:01.170Z,22.60
2018-07-27T05:56:33.767Z,22.70
2018-07-27T05:59:06.161Z,22.70
2018-07-27T06:01:38.618Z,22.90
2018-07-27T06:04:10.994Z,22.90
2018-07-27T06:06:43.541Z,23.00
2018-07-27T06:09:16.077Z,23.00
2018-07-27T06:11:48.487Z,23.10
2018-07-27T06:14:20.980Z,23.20
2018-07-27T06:16:53.428Z,23.30
2018-07-27T06:19:25.974Z,23.40
2018-07-27T06:21:58.472Z,23.50
2018-07-27T06:24:43.954Z,23.50
2018-07-27T06:29:50.369Z,23.80
2018-07-27T06:32:22.843Z,23.80
2018-07-27T06:34:55.280Z,23.90
2018-07-27T06:37:27.886Z,24.00
2018-07-27T06:40:00.513Z,24.10
2018-07-27T06:42:33.108Z,24.10
2018-07-27T06:45:06.001Z,24.10
2018-07-27T06:47:39.872Z,24.20
2018-07-27T06:50:12.618Z,24.20
2018-07-27T06:52:45.491Z,24.20
2018-07-27T06:55:18.221Z,24.30
2018-07-27T06:57:51.609Z,24.40
2018-07-27T07:00:24.331Z,24.40
2018-07-27T07:02:56.996Z,24.50
2018-07-27T07:05:29.738Z,24.50
2018-07-27T07:08:03.589Z,24.50
2018-07-27T07:10:36.251Z,24.60
2018-07-27T07:15:41.822Z,24.80
2018-07-27T07:18:14.435Z,25.00
2018-07-27T07:20:47.200Z,25.10
2018-07-27T07:25:52.670Z,25.30
2018-07-27T07:28:25.276Z,25.30
2018-07-27T07:30:58.004Z,25.40
2018-07-27T07:33:31.099Z,25.40
2018-07-27T07:36:03.925Z,25.50
2018-07-27T07:38:36.728Z,25.50
2018-07-27T07:41:09.456Z,25.60
2018-07-27T07:43:42.107Z,25.60
2018-07-27T07:46:14.925Z,25.70
2018-07-27T07:48:48.251Z,25.80
2018-07-27T07:51:22.251Z,25.90
2018-07-27T07:53:55.243Z,26.10
2018-07-27T07:56:28.070Z,26.10
2018-07-27T07:59:03.251Z,26.10
2018-07-27T08:01:36.227Z,26.30
2018-07-27T08:04:09.336Z,26.40
2018-07-27T08:06:42.298Z,26.40
2018-07-27T08:09:15.506Z,26.40
2018-07-27T08:11:49.621Z,26.40
2018-07-27T08:14:22.759Z,26.50
2018-07-27T08:16:55.258Z,26.50
2018-07-27T08:19:27.724Z,26.60
2018-07-27T08:22:00.307Z,26.70
2018-07-27T08:24:32.839Z,26.80
2018-07-27T08:27:06.124Z,27.00
2018-07-27T08:29:39.829Z,27.00
2018-07-27T08:34:46.408Z,27.00
2018-07-27T08:37:19.141Z,27.00
2018-07-27T08:39:51.790Z,27.10
2018-07-27T08:42:24.379Z,27.00
2018-07-27T08:44:57.015Z,27.10
2018-07-27T08:47:30.004Z,27.20
2018-07-27T08:50:02.638Z,27.20
2018-07-27T08:52:35.108Z,27.40
2018-07-27T08:55:07.978Z,27.50
2018-07-27T08:57:40.577Z,27.60
2018-07-27T09:00:13.135Z,27.60
2018-07-27T09:02:46.077Z,27.70
2018-07-27T09:05:18.665Z,27.80
2018-07-27T09:07:51.338Z,28.00
2018-07-27T09:10:24.230Z,28.10
2018-07-27T09:12:56.820Z,28.20
2018-07-27T09:15:34.388Z,28.40
2018-07-27T09:18:07.732Z,28.50
2018-07-27T09:20:40.218Z,28.40
2018-07-27T09:23:12.668Z,28.40
2018-07-27T09:25:47.203Z,28.50
2018-07-27T09:28:19.647Z,28.60
2018-07-27T09:30:52.397Z,28.50
2018-07-27T09:33:24.906Z,28.40
2018-07-27T09:35:57.398Z,28.40
2018-07-27T09:38:29.963Z,28.40
2018-07-27T09:46:07.820Z,28.60
2018-07-27T09:48:40.378Z,28.50
2018-07-27T09:51:14.219Z,28.30
2018-07-27T09:53:47.155Z,28.10
2018-07-27T09:56:20.022Z,28.30
2018-07-27T09:58:52.769Z,28.50
2018-07-27T10:01:27.304Z,28.50
2018-07-27T10:03:59.980Z,28.60
2018-07-27T10:06:33.380Z,28.70
2018-07-27T10:09:06.887Z,28.80
2018-07-27T10:11:40.854Z,28.80
2018-07-27T10:14:13.603Z,29.00
2018-07-27T10:19:19.081Z,29.00
2018-07-27T10:21:51.663Z,29.10
2018-07-27T10:24:24.254Z,29.20
2018-07-27T10:26:58.153Z,29.20
2018-07-27T10:29:30.750Z,29.40
2018-07-27T10:32:04.645Z,29.30
2018-07-27T10:34:37.367Z,29.00
2018-07-27T10:37:10.190Z,28.80
2018-07-27T10:39:42.977Z,29.00
2018-07-27T10:42:15.809Z,29.00
2018-07-27T10:44:49.013Z,29.00
2018-07-27T10:47:22.640Z,29.10
2018-07-27T10:49:55.483Z,29.20
2018-07-27T10:52:28.572Z,29.20
2018-07-27T11:00:11.569Z,29.80
2018-07-27T11:02:44.511Z,29.80
2018-07-27T11:07:49.710Z,30.10
2018-07-27T11:10:22.525Z,30.20
2018-07-27T11:12:55.709Z,30.20
2018-07-27T11:15:28.841Z,30.00
2018-07-27T11:20:34.662Z,30.60
2018-07-27T11:23:07.538Z,30.70
2018-07-27T11:25:40.079Z,30.60
2018-07-27T11:28:12.729Z,30.60
2018-07-27T11:30:45.666Z,30.60
2018-07-27T11:33:19.372Z,30.60
2018-07-27T11:35:52.046Z,30.80
2018-07-27T11:40:59.289Z,30.90
2018-07-27T11:43:32.317Z,30.90
2018-07-27T11:46:04.847Z,30.70
2018-07-27T11:48:37.992Z,30.60
2018-07-27T11:51:10.755Z,30.30
2018-07-27T11:53:43.747Z,30.10
2018-07-27T11:56:16.734Z,30.20
2018-07-27T11:58:49.859Z,30.30
2018-07-27T12:03:55.443Z,30.10
2018-07-27T12:06:28.104Z,30.20
2018-07-27T12:09:01.018Z,30.60
2018-07-27T12:11:33.815Z,31.10
2018-07-27T12:14:06.991Z,31.00
2018-07-27T12:16:39.666Z,31.00
2018-07-27T12:19:12.749Z,31.10
2018-07-27T12:21:45.747Z,30.90
2018-07-27T12:24:18.414Z,30.80
2018-07-27T12:26:51.141Z,30.60
2018-07-27T12:29:23.997Z,30.60
2018-07-27T12:31:56.857Z,30.70
2018-07-27T12:34:29.628Z,30.60
2018-07-27T12:37:02.251Z,30.80
2018-07-27T12:39:34.941Z,30.80
2018-07-27T12:42:07.565Z,31.00
2018-07-27T12:44:40.287Z,31.10
2018-07-27T12:47:13.407Z,31.10
2018-07-27T12:49:46.259Z,31.20
2018-07-27T12:52:19.243Z,31.00
2018-07-27T12:54:52.157Z,30.80
2018-07-27T12:57:25.181Z,30.90
2018-07-27T12:59:58.210Z,31.00
2018-07-27T13:02:31.041Z,30.90
2018-07-27T13:05:04.126Z,31.10
2018-07-27T13:07:36.658Z,31.30
2018-07-27T13:10:09.220Z,31.40
2018-07-27T13:12:41.788Z,31.40
2018-07-27T13:15:14.435Z,30.90
2018-07-27T13:17:46.857Z,30.80
2018-07-27T13:20:19.463Z,30.90
2018-07-27T13:22:51.954Z,30.90
2018-07-27T13:25:24.667Z,31.00
2018-07-27T13:27:57.436Z,31.10
2018-07-27T13:30:30.284Z,31.00
2018-07-27T13:33:03.108Z,31.10
2018-07-27T13:35:36.199Z,31.20
2018-07-27T13:38:08.942Z,31.30
2018-07-27T13:40:41.674Z,31.20
2018-07-27T13:43:14.585Z,31.10
2018-07-27T13:45:47.320Z,31.10
2018-07-27T13:48:20.332Z,31.30
2018-07-27T13:50:52.983Z,31.30
2018-07-27T13:53:25.767Z,31.20
2018-07-27T13:55:59.758Z,31.20
2018-07-27T13:58:32.547Z,31.30
2018-07-27T14:01:05.396Z,31.30
2018-07-27T14:03:38.268Z,31.40
2018-07-27T14:06:11.129Z,31.30
2018-07-27T14:08:44.087Z,31.20
2018-07-27T14:11:17.075Z,31.00
2018-07-27T14:13:49.936Z,31.00
2018-07-27T14:16:22.557Z,31.10
2018-07-27T14:18:55.942Z,31.20
2018-07-27T14:21:29.114Z,31.40
2018-07-27T14:24:02.065Z,31.60
2018-07-27T14:26:34.789Z,31.30
2018-07-27T14:29:07.709Z,31.00
2018-07-27T14:34:13.252Z,30.80
2018-07-27T14:36:46.070Z,31.20
2018-07-27T14:39:18.648Z,31.40
2018-07-27T14:41:51.354Z,31.50
2018-07-27T14:44:24.621Z,31.60
2018-07-27T14:46:57.444Z,31.80
2018-07-27T14:49:30.394Z,31.40
2018-07-27T14:52:03.151Z,31.40
2018-07-27T14:54:35.949Z,31.40
2018-07-27T14:57:08.829Z,31.40
2018-07-27T14:59:41.419Z,31.20
2018-07-27T15:02:14.393Z,31.10
2018-07-27T15:04:47.265Z,31.20
2018-07-27T15:09:52.727Z,31.50
2018-07-27T15:12:25.516Z,31.60
2018-07-27T15:14:58.223Z,31.80
2018-07-27T15:17:34.590Z,31.70
2018-07-27T15:20:07.455Z,31.70
2018-07-27T15:22:40.208Z,31.80
2018-07-27T15:37:58.999Z,32.10
2018-07-27T15:40:32.064Z,31.60
2018-07-27T15:43:04.833Z,31.50
2018-07-27T15:45:37.395Z,31.30
2018-07-27T15:48:10.425Z,31.30
2018-07-27T15:50:43.263Z,31.40
2018-07-27T15:53:16.136Z,31.40
2018-07-27T15:55:48.775Z,31.40
2018-07-27T15:58:21.493Z,31.40
2018-07-27T16:03:27.035Z,31.00
2018-07-27T16:05:59.932Z,30.90
2018-07-27T16:08:32.747Z,30.90
2018-07-27T16:11:05.607Z,31.00
2018-07-27T16:13:38.316Z,31.30
2018-07-27T16:16:12.081Z,31.50
2018-07-27T16:18:51.017Z,31.30
2018-07-27T16:21:23.789Z,31.20
2018-07-27T16:23:56.321Z,31.10
2018-07-27T16:26:29.889Z,30.80
2018-07-27T16:29:02.532Z,30.60
2018-07-27T16:31:35.368Z,30.50
2018-07-27T16:34:08.159Z,30.20
2018-07-27T16:36:41.837Z,30.00
2018-07-27T16:39:15.284Z,30.10
2018-07-27T16:41:48.170Z,30.00
2018-07-27T16:44:21.260Z,30.00
2018-07-27T16:46:53.678Z,30.00
2018-07-27T16:49:26.751Z,30.00
2018-07-27T16:51:59.625Z,29.90
2018-07-27T16:54:32.395Z,29.80
2018-07-27T16:57:05.699Z,29.60
2018-07-27T16:59:39.063Z,29.60
2018-07-27T17:02:12.122Z,29.40
2018-07-27T17:12:22.958Z,29.40
2018-07-27T17:14:56.300Z,29.40
2018-07-27T17:17:29.073Z,29.30
2018-07-27T17:20:02.409Z,29.20
2018-07-27T17:22:35.064Z,29.00
2018-07-27T17:25:09.466Z,29.00
2018-07-27T17:27:42.072Z,29.00
2018-07-27T17:32:47.651Z,28.80
2018-07-27T17:37:53.013Z,28.70
2018-07-27T17:40:25.884Z,28.60
2018-07-27T17:45:31.348Z,28.50
2018-07-27T17:48:05.037Z,28.50
2018-07-27T17:50:37.861Z,28.40
2018-07-27T17:53:10.625Z,28.40
2018-07-27T17:55:43.271Z,28.30
2018-07-27T17:58:15.965Z,28.10
2018-07-27T18:00:48.777Z,28.10
2018-07-27T18:03:21.915Z,28.10
2018-07-27T18:05:54.975Z,28.00
2018-07-27T18:08:27.698Z,28.00
2018-07-27T18:11:00.415Z,27.90
2018-07-27T18:13:33.499Z,27.90
2018-07-27T18:16:06.055Z,27.90
2018-07-27T18:18:38.939Z,27.80
2018-07-27T18:21:11.717Z,27.80
2018-07-27T18:23:44.544Z,27.80
2018-07-27T18:28:50.075Z,27.60
2018-07-27T18:31:22.828Z,27.60
2018-07-27T18:33:55.778Z,27.50
2018-07-27T18:36:28.596Z,27.50
2018-07-27T18:39:01.497Z,27.50
2018-07-27T18:41:34.195Z,27.50
2018-07-27T18:44:07.332Z,27.40
2018-07-27T18:46:40.224Z,27.40
2018-07-27T18:49:12.918Z,27.40
2018-07-27T18:51:45.785Z,27.50
2018-07-27T18:54:18.461Z,27.40
2018-07-27T18:56:51.193Z,27.50
2018-07-27T18:59:24.270Z,27.40
2018-07-27T19:01:57.188Z,27.40
2018-07-27T19:04:29.867Z,27.40
2018-07-27T19:07:02.614Z,27.30
2018-07-27T19:09:35.934Z,27.30
2018-07-27T19:12:08.724Z,27.30
2018-07-27T19:14:41.387Z,27.20
2018-07-27T19:17:14.034Z,27.20
2018-07-27T19:19:46.826Z,27.10
2018-07-27T19:24:52.186Z,27.00
2018-07-27T19:27:25.247Z,27.00
2018-07-27T19:29:58.662Z,26.90
2018-07-27T19:32:31.810Z,26.80
2018-07-27T19:35:04.563Z,26.80
2018-07-27T19:37:37.346Z,26.70
2018-07-27T19:40:10.022Z,26.70
2018-07-27T19:42:42.937Z,26.60
2018-07-27T19:45:15.779Z,26.60
2018-07-27T19:47:48.495Z,26.50
2018-07-27T19:50:21.265Z,26.50
2018-07-27T19:52:54.068Z,26.40
2018-07-27T19:55:26.617Z,26.50
2018-07-27T19:57:59.599Z,26.40
2018-07-27T20:00:32.401Z,26.30
2018-07-27T20:03:05.627Z,26.30
2018-07-27T20:05:38.831Z,26.20
2018-07-27T20:08:11.583Z,26.10
2018-07-27T20:15:49.946Z,26.00
2018-07-27T20:18:22.855Z,25.90
2018-07-27T20:20:55.745Z,25.80
2018-07-27T20:23:28.694Z,25.80
2018-07-27T20:26:01.360Z,25.70
2018-07-27T20:28:34.107Z,25.70
2018-07-27T20:31:06.699Z,25.70
2018-07-27T20:33:39.326Z,25.70
2018-07-27T20:36:11.910Z,25.60
2018-07-27T20:38:44.621Z,25.50
2018-07-27T20:41:17.157Z,25.50
2018-07-27T20:43:50.209Z,25.50
2018-07-27T20:46:23.240Z,25.40
2018-07-27T20:48:55.852Z,25.30
2018-07-27T20:51:28.625Z,25.30
2018-07-27T20:54:01.507Z,25.20
2018-07-27T20:59:06.976Z,25.10
2018-07-27T21:01:39.611Z,25.10
2018-07-27T21:04:13.026Z,25.00
2018-07-27T21:06:45.839Z,25.00
2018-07-27T21:09:18.718Z,24.80
2018-07-27T21:11:51.210Z,24.80
2018-07-27T21:14:23.936Z,24.70
2018-07-27T21:16:56.435Z,24.80
2018-07-27T21:19:28.851Z,24.70
2018-07-27T21:22:01.326Z,24.70
2018-07-27T21:24:34.479Z,24.70
2018-07-27T21:29:39.450Z,24.70
2018-07-27T21:32:11.821Z,24.60
2018-07-27T21:34:44.253Z,24.60
2018-07-27T21:37:16.674Z,24.50
2018-07-27T21:39:49.126Z,24.40
2018-07-27T21:42:27.500Z,24.30
2018-07-27T21:45:00.301Z,24.30
2018-07-27T21:47:32.722Z,24.40
2018-07-27T21:50:05.224Z,24.40
2018-07-27T21:52:37.653Z,24.40
2018-07-27T21:55:10.101Z,24.50
2018-07-27T21:57:42.520Z,24.50
2018-07-27T22:00:15.031Z,24.40
2018-07-27T22:02:47.515Z,24.50
2018-07-27T22:05:20.302Z,24.40
2018-07-27T22:07:54.439Z,24.50
2018-07-27T22:10:26.877Z,24.50
2018-07-27T22:12:59.559Z,24.50
2018-07-27T22:15:32.037Z,24.50
2018-07-27T22:18:05.421Z,24.60
2018-07-27T22:23:10.590Z,24.50
2018-07-27T22:25:44.197Z,24.50
2018-07-27T22:28:16.923Z,24.50
2018-07-27T22:30:49.499Z,24.50
2018-07-27T22:33:21.852Z,24.60
2018-07-27T22:35:54.244Z,24.60
2018-07-27T22:38:26.658Z,24.50
2018-07-27T22:40:59.232Z,24.50
2018-07-27T22:43:31.658Z,24.50
2018-07-27T22:46:04.538Z,24.30
2018-07-27T22:48:36.901Z,24.30
2018-07-27T22:51:09.349Z,24.20
2018-07-27T22:53:42.047Z,24.10
2018-07-27T22:56:14.543Z,24.00
2018-07-27T22:58:46.940Z,23.90
2018-07-27T23:01:19.434Z,23.90
2018-07-27T23:03:52.135Z,23.80
2018-07-27T23:06:24.687Z,23.80
2018-07-27T23:08:57.101Z,23.80
2018-07-27T23:11:29.542Z,23.80
2018-07-27T23:14:01.960Z,23.80
2018-07-27T23:16:34.434Z,23.70
2018-07-27T23:19:06.817Z,23.70
2018-07-27T23:21:39.287Z,23.60
2018-07-27T23:24:11.779Z,23.50
2018-07-27T23:26:44.582Z,23.50
2018-07-27T23:29:17.383Z,23.40
2018-07-27T23:31:49.891Z,23.40
2018-07-27T23:34:22.294Z,23.40
2018-07-27T23:36:54.802Z,23.40
2018-07-27T23:39:27.239Z,23.50
2018-07-27T23:41:59.686Z,23.50
2018-07-27T23:44:32.092Z,23.50
2018-07-27T23:47:04.580Z,23.40
2018-07-27T23:49:36.970Z,23.30
2018-07-27T23:52:09.563Z,23.30
2018-07-27T23:54:41.921Z,23.30
2018-07-27T23:57:14.454Z,23.30
2018-07-27T23:59:46.835Z,23.30
